createdAt,value
2023-03-05T00:01:26.688Z,45.04
2023-03-05T00:03:55.050Z,44.91
2023-03-05T00:06:22.432Z,44.97
2023-03-05T00:08:51.860Z,45.04
2023-03-05T00:11:18.634Z,44.97
2023-03-05T00:13:47.585Z,44.83
2023-03-05T00:16:17.412Z,44.97
2023-03-05T00:18:45.086Z,44.86
2023-03-05T00:21:30.187Z,45.04
2023-03-05T00:23:57.504Z,44.77
2023-03-05T00:26:27.319Z,45.02
2023-03-05T00:28:59.267Z,44.95
2023-03-05T00:31:30.442Z,44.99
2023-03-05T00:34:01.498Z,44.93
2023-03-05T00:36:30.425Z,45.03
2023-03-05T00:38:59.932Z,44.75
2023-03-05T00:41:26.745Z,44.81
2023-03-05T00:43:53.550Z,44.78
2023-03-05T00:46:41.567Z,44.84
2023-03-05T00:49:10.395Z,44.88
2023-03-05T00:51:37.261Z,44.93
2023-03-05T00:54:09.677Z,44.85
2023-03-05T00:56:36.389Z,44.96
2023-03-05T00:59:03.274Z,44.82
2023-03-05T01:01:29.995Z,44.74
2023-03-05T01:03:58.841Z,44.95
2023-03-05T01:06:30.158Z,44.84
2023-03-05T01:08:59.599Z,44.72
2023-03-05T01:11:28.711Z,44.93
2023-03-05T01:13:55.356Z,44.84
2023-03-05T01:16:24.177Z,44.71
2023-03-05T01:18:55.603Z,44.79
2023-03-05T01:21:22.306Z,44.75
2023-03-05T01:23:52.108Z,44.81
2023-03-05T01:26:20.902Z,44.85
2023-03-05T01:28:49.142Z,44.82
2023-03-05T01:31:16.007Z,44.78
2023-03-05T01:33:45.149Z,44.68
2023-03-05T01:36:16.912Z,44.82
2023-03-05T01:38:44.226Z,44.67
2023-03-05T01:41:13.519Z,44.41
2023-03-05T01:43:42.894Z,44.63
2023-03-05T01:46:24.894Z,44.63
2023-03-05T01:49:22.420Z,44.73
2023-03-05T01:52:09.045Z,44.68
2023-03-05T01:54:56.796Z,44.60
2023-03-05T01:57:28.032Z,44.73
2023-03-05T02:00:00.871Z,44.62
2023-03-05T02:02:27.484Z,44.77
2023-03-05T02:05:27.290Z,44.68
2023-03-05T02:07:57.518Z,44.71
2023-03-05T02:10:37.030Z,44.75
2023-03-05T02:13:05.753Z,44.60
2023-03-05T02:15:32.684Z,44.51
2023-03-05T02:17:59.442Z,44.67
2023-03-05T02:20:27.807Z,44.59
2023-03-05T02:22:54.751Z,44.81
2023-03-05T02:25:28.801Z,44.58
2023-03-05T02:28:06.672Z,44.63
2023-03-05T02:30:35.499Z,44.44
2023-03-05T02:33:02.237Z,44.58
2023-03-05T02:35:28.958Z,44.52
2023-03-05T02:37:57.974Z,44.36
2023-03-05T02:40:26.940Z,44.54
2023-03-05T02:42:53.768Z,44.66
2023-03-05T02:45:23.509Z,44.42
2023-03-05T02:47:52.408Z,44.58
2023-03-05T02:50:19.160Z,44.65
2023-03-05T02:52:45.833Z,44.24
2023-03-05T02:55:17.662Z,44.33
2023-03-05T02:57:46.454Z,44.45
2023-03-05T03:00:13.672Z,44.45
2023-03-05T03:02:40.516Z,44.59
2023-03-05T03:05:07.625Z,44.50
2023-03-05T03:07:36.583Z,44.37
2023-03-05T03:10:07.156Z,44.48
2023-03-05T03:12:40.688Z,44.36
2023-03-05T03:15:10.429Z,44.46
2023-03-05T03:17:39.816Z,44.47
2023-03-05T03:20:10.142Z,44.45
2023-03-05T03:22:36.924Z,44.45
2023-03-05T03:25:04.045Z,44.42
2023-03-05T03:27:32.868Z,44.37
2023-03-05T03:30:04.880Z,44.32
2023-03-05T03:32:36.304Z,44.28
2023-03-05T03:35:03.200Z,44.31
2023-03-05T03:37:33.135Z,44.33
2023-03-05T03:40:02.189Z,44.37
2023-03-05T03:42:28.837Z,44.38
2023-03-05T03:44:55.602Z,44.38
2023-03-05T03:47:26.897Z,44.33
2023-03-05T03:49:54.138Z,44.28
2023-03-05T03:52:23.198Z,44.31
2023-03-05T03:54:52.452Z,44.39
2023-03-05T03:57:21.782Z,44.31
2023-03-05T03:59:51.128Z,44.34
2023-03-05T04:02:21.163Z,44.30
2023-03-05T04:04:52.276Z,44.30
2023-03-05T04:07:21.224Z,44.42
2023-03-05T04:09:50.036Z,44.36
2023-03-05T04:12:18.322Z,44.43
2023-03-05T04:14:51.511Z,44.31
2023-03-05T04:17:20.482Z,44.29
2023-03-05T04:19:47.121Z,44.29
2023-03-05T04:22:14.959Z,44.20
2023-03-05T04:24:41.830Z,44.33
2023-03-05T04:27:08.778Z,44.32
2023-03-05T04:29:37.851Z,44.29
2023-03-05T04:32:07.280Z,44.21
2023-03-05T04:34:37.164Z,44.26
2023-03-05T04:37:03.869Z,44.30
2023-03-05T04:39:30.690Z,44.18
2023-03-05T04:41:57.390Z,44.21
2023-03-05T04:44:26.158Z,44.12
2023-03-05T04:46:54.987Z,44.24
2023-03-05T04:49:21.764Z,44.23
2023-03-05T04:51:48.584Z,44.13
2023-03-05T04:54:15.211Z,44.16
2023-03-05T04:56:46.490Z,44.18
2023-03-05T04:59:15.266Z,44.17
2023-03-05T05:01:44.062Z,44.43
2023-03-05T05:04:13.046Z,44.25
2023-03-05T05:06:39.679Z,44.27
2023-03-05T05:09:06.410Z,44.27
2023-03-05T05:11:36.205Z,44.19
2023-03-05T05:14:05.594Z,44.03
2023-03-05T05:16:32.255Z,44.18
2023-03-05T05:18:58.980Z,43.99
2023-03-05T05:21:25.683Z,44.11
2023-03-05T05:23:54.717Z,44.24
2023-03-05T05:26:21.473Z,44.13
2023-03-05T05:28:52.920Z,44.04
2023-03-05T05:31:22.748Z,44.02
2023-03-05T05:33:49.972Z,44.03
2023-03-05T05:36:21.153Z,44.00
2023-03-05T05:38:49.978Z,44.02
2023-03-05T05:41:20.303Z,44.18
2023-03-05T05:43:51.771Z,44.18
2023-03-05T05:46:19.340Z,44.09
2023-03-05T05:48:46.341Z,44.15
2023-03-05T05:51:18.008Z,44.10
2023-03-05T05:53:47.086Z,44.01
2023-03-05T05:56:14.016Z,43.96
2023-03-05T05:58:41.132Z,44.09
2023-03-05T06:01:20.013Z,44.10
2023-03-05T06:03:49.573Z,43.97
2023-03-05T06:06:17.754Z,44.08
2023-03-05T06:08:44.544Z,43.96
2023-03-05T06:11:13.613Z,43.73
2023-03-05T06:13:40.502Z,44.01
2023-03-05T06:16:12.268Z,43.90
2023-03-05T06:18:41.083Z,43.88
2023-03-05T06:21:09.596Z,43.94
2023-03-05T06:23:40.917Z,43.83
2023-03-05T06:26:09.765Z,44.00
2023-03-05T06:28:38.616Z,43.86
2023-03-05T06:31:10.320Z,43.95
2023-03-05T06:33:37.218Z,43.93
2023-03-05T06:36:08.107Z,43.80
2023-03-05T06:38:34.962Z,43.80
2023-03-05T06:41:02.688Z,43.77
2023-03-05T06:43:33.490Z,43.98
2023-03-05T06:46:08.470Z,43.93
2023-03-05T06:48:35.230Z,43.86
2023-03-05T06:51:01.982Z,43.78
2023-03-05T06:53:30.773Z,43.74
2023-03-05T06:55:57.560Z,43.89
2023-03-05T06:58:24.979Z,43.65
2023-03-05T07:00:51.804Z,43.74
2023-03-05T07:03:18.916Z,43.64
2023-03-05T07:05:45.740Z,43.65
2023-03-05T07:08:12.541Z,43.57
2023-03-05T07:10:42.214Z,43.64
2023-03-05T07:13:09.351Z,43.46
2023-03-05T07:15:38.516Z,43.51
2023-03-05T07:18:08.519Z,43.59
2023-03-05T07:20:36.143Z,43.66
2023-03-05T07:23:06.235Z,43.47
2023-03-05T07:25:35.104Z,43.52
2023-03-05T07:28:01.826Z,43.70
2023-03-05T07:30:30.628Z,43.55
2023-03-05T07:32:57.290Z,43.60
2023-03-05T07:35:24.663Z,43.62
2023-03-05T07:37:54.994Z,43.39
2023-03-05T07:40:24.028Z,43.33
2023-03-05T07:42:50.735Z,43.49
2023-03-05T07:45:17.387Z,43.60
2023-03-05T07:47:46.210Z,43.42
2023-03-05T07:50:12.884Z,43.42
2023-03-05T07:52:41.777Z,43.64
2023-03-05T07:55:09.038Z,43.44
2023-03-05T07:57:39.130Z,43.42
2023-03-05T08:00:07.222Z,43.51
2023-03-05T08:02:39.191Z,43.38
2023-03-05T08:05:08.558Z,43.34
2023-03-05T08:07:35.277Z,43.36
2023-03-05T08:10:05.607Z,43.41
2023-03-05T08:12:32.465Z,43.46
2023-03-05T08:15:01.965Z,43.26
2023-03-05T08:17:30.899Z,43.25
2023-03-05T08:20:05.404Z,43.46
2023-03-05T08:22:37.649Z,43.26
2023-03-05T08:25:04.838Z,43.28
2023-03-05T08:27:33.672Z,43.32
2023-03-05T08:30:02.222Z,43.60
2023-03-05T08:32:28.922Z,43.40
2023-03-05T08:34:58.777Z,43.29
2023-03-05T08:37:26.393Z,43.38
2023-03-05T08:39:53.163Z,43.44
2023-03-05T08:42:22.686Z,43.48
2023-03-05T08:44:51.572Z,43.40
2023-03-05T08:47:20.400Z,43.33
2023-03-05T08:49:49.406Z,43.19
2023-03-05T08:52:21.049Z,43.34
2023-03-05T08:54:50.974Z,43.15
2023-03-05T08:57:19.917Z,43.38
2023-03-05T08:59:46.884Z,43.35
2023-03-05T09:02:13.785Z,43.20
2023-03-05T09:04:40.699Z,43.33
2023-03-05T09:07:07.590Z,43.26
2023-03-05T09:09:34.275Z,43.16
2023-03-05T09:12:01.220Z,43.23
2023-03-05T09:14:28.742Z,43.33
2023-03-05T09:16:58.642Z,43.17
2023-03-05T09:19:27.490Z,43.28
2023-03-05T09:21:57.179Z,43.25
2023-03-05T09:24:26.096Z,43.32
2023-03-05T09:26:52.860Z,43.21
2023-03-05T09:29:21.897Z,43.33
2023-03-05T09:31:51.572Z,43.17
2023-03-05T09:34:20.450Z,43.30
2023-03-05T09:36:47.219Z,43.31
2023-03-05T09:39:13.977Z,43.20
2023-03-05T09:41:49.929Z,43.24
2023-03-05T09:44:35.930Z,43.25
2023-03-05T09:47:26.840Z,43.28
2023-03-05T09:50:01.953Z,43.31
2023-03-05T09:53:01.966Z,43.30
2023-03-05T09:55:40.615Z,43.42
2023-03-05T09:58:25.076Z,43.35
2023-03-05T10:00:55.958Z,43.25
2023-03-05T10:03:25.961Z,43.29
2023-03-05T10:06:04.217Z,43.25
2023-03-05T10:08:55.590Z,43.45
2023-03-05T10:11:53.566Z,43.27
2023-03-05T10:14:23.854Z,43.24
2023-03-05T10:17:28.349Z,43.24
2023-03-05T10:20:04.489Z,43.55
2023-03-05T10:22:41.399Z,43.06
2023-03-05T10:25:14.041Z,43.26
2023-03-05T10:27:54.367Z,43.25
2023-03-05T10:30:54.862Z,43.13
2023-03-05T10:33:59.731Z,43.05
2023-03-05T10:37:04.982Z,43.01
2023-03-05T10:40:09.924Z,43.28
2023-03-05T10:42:55.101Z,43.30
2023-03-05T10:45:26.892Z,43.18
2023-03-05T10:48:12.317Z,42.97
2023-03-05T10:50:43.094Z,43.06
2023-03-05T10:53:29.039Z,43.24
2023-03-05T10:55:57.924Z,43.32
2023-03-05T10:58:27.950Z,42.79
2023-03-05T11:01:19.906Z,43.06
2023-03-05T11:03:55.989Z,42.99
2023-03-05T11:06:28.739Z,43.02
2023-03-05T11:08:55.476Z,42.89
2023-03-05T11:11:25.974Z,42.96
2023-03-05T11:14:00.398Z,43.01
2023-03-05T11:16:28.742Z,43.01
2023-03-05T11:19:33.535Z,42.98
2023-03-05T11:22:22.273Z,43.01
2023-03-05T11:25:16.027Z,43.06
2023-03-05T11:27:54.924Z,42.82
2023-03-05T11:30:38.260Z,42.99
2023-03-05T11:33:16.183Z,42.96
2023-03-05T11:35:46.249Z,42.82
2023-03-05T11:38:24.658Z,42.89
2023-03-05T11:40:53.055Z,42.89
2023-03-05T11:43:27.027Z,42.98
2023-03-05T11:45:55.119Z,42.71
2023-03-05T11:48:36.391Z,42.91
2023-03-05T11:51:16.202Z,42.70
2023-03-05T11:53:42.830Z,42.82
2023-03-05T11:56:34.504Z,42.89
2023-03-05T11:59:21.674Z,42.80
2023-03-05T12:01:55.119Z,42.88
2023-03-05T12:04:24.088Z,42.84
2023-03-05T12:06:52.425Z,42.87
2023-03-05T12:09:25.921Z,42.75
2023-03-05T12:11:56.666Z,43.01
2023-03-05T12:14:39.792Z,42.63
2023-03-05T12:17:20.161Z,42.80
2023-03-05T12:20:10.054Z,42.90
2023-03-05T12:22:38.122Z,42.92
2023-03-05T12:25:17.421Z,42.97
2023-03-05T12:27:46.365Z,42.85
2023-03-05T12:30:34.479Z,42.90
2023-03-05T12:33:02.409Z,42.93
2023-03-05T12:35:35.969Z,43.02
2023-03-05T12:38:25.875Z,42.90
2023-03-05T12:40:53.363Z,42.88
2023-03-05T12:43:33.150Z,37.61
2023-03-05T12:46:35.864Z,35.67
2023-03-05T12:49:27.991Z,34.90
2023-03-05T12:51:56.093Z,34.16
2023-03-05T12:54:33.201Z,34.21
2023-03-05T12:57:01.919Z,34.07
2023-03-05T12:59:33.529Z,33.14
2023-03-05T13:02:03.796Z,33.04
2023-03-05T13:04:31.870Z,33.52
2023-03-05T13:07:16.872Z,37.10
2023-03-05T13:09:54.863Z,38.55
2023-03-05T13:12:21.675Z,38.58
2023-03-05T13:14:56.193Z,38.73
2023-03-05T13:17:39.273Z,38.94
2023-03-05T13:20:24.918Z,39.07
2023-03-05T13:23:14.108Z,39.66
2023-03-05T13:25:42.947Z,39.99
2023-03-05T13:28:16.892Z,40.34
2023-03-05T13:30:53.756Z,40.74
2023-03-05T13:33:25.533Z,40.93
2023-03-05T13:35:53.906Z,41.30
2023-03-05T13:38:31.021Z,41.49
2023-03-05T13:41:04.835Z,41.52
2023-03-05T13:43:31.639Z,41.90
2023-03-05T13:46:00.630Z,42.17
2023-03-05T13:48:27.714Z,42.11
2023-03-05T13:50:58.643Z,42.04
2023-03-05T13:53:31.165Z,42.07
2023-03-05T13:56:01.666Z,42.14
2023-03-05T13:58:53.191Z,42.19
2023-03-05T14:01:48.446Z,42.24
2023-03-05T14:04:15.545Z,42.24
2023-03-05T14:06:43.162Z,42.67
2023-03-05T14:09:40.668Z,42.47
2023-03-05T14:12:28.276Z,42.61
2023-03-05T14:14:54.900Z,42.50
2023-03-05T14:17:21.566Z,42.10
2023-03-05T14:19:51.252Z,42.44
2023-03-05T14:22:38.037Z,42.84
2023-03-05T14:25:05.680Z,42.73
2023-03-05T14:27:36.122Z,42.73
2023-03-05T14:30:06.237Z,42.56
2023-03-05T14:32:38.921Z,42.80
2023-03-05T14:35:20.598Z,42.68
2023-03-05T14:37:50.394Z,43.14
2023-03-05T14:40:23.353Z,42.75
2023-03-05T14:43:05.741Z,42.64
2023-03-05T14:45:39.882Z,42.80
2023-03-05T14:48:10.950Z,42.90
2023-03-05T14:50:51.765Z,42.72
2023-03-05T14:53:25.835Z,42.79
2023-03-05T14:55:56.772Z,42.86
2023-03-05T14:58:27.511Z,42.78
2023-03-05T15:00:56.921Z,42.83
2023-03-05T15:03:23.744Z,42.84
2023-03-05T15:05:54.657Z,42.86
2023-03-05T15:08:28.863Z,42.84
2023-03-05T15:10:55.882Z,42.78
2023-03-05T15:13:22.634Z,42.82
2023-03-05T15:15:52.462Z,42.78
2023-03-05T15:18:20.103Z,42.74
2023-03-05T15:20:49.221Z,42.82
2023-03-05T15:23:18.490Z,42.89
2023-03-05T15:25:47.316Z,42.89
2023-03-05T15:28:16.528Z,42.81
2023-03-05T15:30:45.807Z,43.13
2023-03-05T15:33:14.186Z,42.53
2023-03-05T15:35:41.257Z,42.96
2023-03-05T15:38:10.694Z,42.88
2023-03-05T15:40:44.254Z,42.87
2023-03-05T15:43:11.003Z,42.69
2023-03-05T15:45:37.744Z,42.54
2023-03-05T15:48:09.225Z,42.49
2023-03-05T15:50:35.961Z,42.47
2023-03-05T15:53:05.153Z,42.38
2023-03-05T15:55:31.859Z,42.32
2023-03-05T15:57:58.572Z,42.35
2023-03-05T16:00:30.389Z,42.27
2023-03-05T16:02:57.172Z,42.28
2023-03-05T16:05:29.101Z,42.01
2023-03-05T16:08:01.122Z,41.98
2023-03-05T16:10:33.445Z,42.08
2023-03-05T16:13:07.914Z,42.00
2023-03-05T16:15:35.252Z,41.83
2023-03-05T16:18:04.615Z,41.74
2023-03-05T16:20:36.295Z,41.66
2023-03-05T16:23:04.408Z,41.71
2023-03-05T16:25:31.169Z,41.80
2023-03-05T16:27:57.856Z,41.63
2023-03-05T16:30:26.671Z,41.86
2023-03-05T16:32:55.515Z,41.79
2023-03-05T16:35:24.590Z,41.97
2023-03-05T16:37:53.526Z,41.81
2023-03-05T16:40:22.631Z,41.78
2023-03-05T16:42:51.630Z,41.73
2023-03-05T16:45:21.239Z,41.78
2023-03-05T16:47:47.885Z,41.57
2023-03-05T16:50:16.844Z,41.66
2023-03-05T16:52:43.654Z,41.47
2023-03-05T16:55:11.503Z,41.46
2023-03-05T16:57:41.143Z,41.40
2023-03-05T17:00:10.751Z,41.40
2023-03-05T17:02:37.654Z,41.56
2023-03-05T17:05:07.136Z,41.23
2023-03-05T17:07:35.919Z,41.23
2023-03-05T17:10:02.653Z,41.27
2023-03-05T17:12:34.022Z,41.38
2023-03-05T17:15:05.398Z,41.34
2023-03-05T17:17:32.548Z,41.59
2023-03-05T17:20:02.495Z,41.55
2023-03-05T17:22:29.243Z,41.64
2023-03-05T17:24:58.256Z,41.71
2023-03-05T17:27:24.881Z,41.83
2023-03-05T17:29:54.582Z,41.76
2023-03-05T17:32:23.398Z,41.70
2023-03-05T17:34:53.857Z,41.94
2023-03-05T17:37:22.996Z,41.98
2023-03-05T17:39:54.340Z,42.08
2023-03-05T17:42:21.251Z,42.08
2023-03-05T17:44:53.170Z,42.06
2023-03-05T17:47:22.552Z,42.09
2023-03-05T17:49:51.332Z,42.25
2023-03-05T17:52:21.114Z,42.31
2023-03-05T17:54:48.971Z,42.30
2023-03-05T17:57:15.784Z,42.25
2023-03-05T17:59:44.421Z,42.34
2023-03-05T18:02:12.090Z,42.54
2023-03-05T18:04:41.312Z,42.54
2023-03-05T18:07:11.130Z,42.55
2023-03-05T18:09:37.930Z,42.46
2023-03-05T18:12:04.930Z,42.49
2023-03-05T18:14:33.783Z,42.74
2023-03-05T18:17:00.482Z,42.50
2023-03-05T18:19:27.393Z,42.69
2023-03-05T18:21:54.106Z,42.62
2023-03-05T18:24:20.693Z,42.73
2023-03-05T18:26:49.521Z,42.61
2023-03-05T18:29:18.628Z,42.71
2023-03-05T18:31:47.632Z,42.61
2023-03-05T18:34:20.352Z,42.61
2023-03-05T18:36:49.230Z,42.69
2023-03-05T18:39:19.688Z,42.89
2023-03-05T18:41:51.576Z,42.85
2023-03-05T18:44:20.836Z,42.92
2023-03-05T18:46:47.627Z,42.83
2023-03-05T18:49:19.305Z,42.76
2023-03-05T18:51:48.714Z,42.90
2023-03-05T18:54:15.375Z,42.76
2023-03-05T18:56:42.219Z,42.88
2023-03-05T18:59:11.294Z,42.90
2023-03-05T19:01:40.312Z,43.01
2023-03-05T19:04:10.134Z,42.89
2023-03-05T19:06:38.324Z,43.16
2023-03-05T19:09:53.712Z,43.20
2023-03-05T19:12:23.631Z,43.29
2023-03-05T19:14:53.521Z,43.38
2023-03-05T19:17:22.373Z,43.49
2023-03-05T19:19:54.979Z,43.73
2023-03-05T19:22:23.792Z,43.91
2023-03-05T19:24:50.506Z,44.01
2023-03-05T19:27:19.466Z,44.06
2023-03-05T19:29:51.081Z,44.39
2023-03-05T19:32:18.163Z,44.72
2023-03-05T19:34:45.191Z,44.79
2023-03-05T19:37:12.199Z,44.94
2023-03-05T19:39:41.721Z,45.06
2023-03-05T19:42:08.479Z,45.23
2023-03-05T19:44:35.394Z,45.59
2023-03-05T19:47:02.182Z,45.58
2023-03-05T19:49:31.264Z,45.86
2023-03-05T19:52:03.463Z,46.07
2023-03-05T19:54:33.283Z,46.16
2023-03-05T19:57:00.237Z,46.17
2023-03-05T19:59:27.085Z,46.39
2023-03-05T20:01:57.548Z,46.59
2023-03-05T20:04:28.238Z,46.69
2023-03-05T20:06:54.887Z,46.75
2023-03-05T20:09:21.689Z,46.93
2023-03-05T20:11:50.644Z,47.22
2023-03-05T20:14:17.418Z,47.19
2023-03-05T20:16:44.288Z,47.22
2023-03-05T20:19:16.324Z,47.40
2023-03-05T20:21:43.424Z,47.36
2023-03-05T20:24:19.875Z,47.53
2023-03-05T20:26:49.428Z,47.76
2023-03-05T20:29:18.081Z,47.56
2023-03-05T20:31:50.022Z,47.94
2023-03-05T20:34:18.289Z,47.99
2023-03-05T20:36:50.399Z,48.07
2023-03-05T20:39:17.057Z,48.08
2023-03-05T20:41:44.252Z,47.88
2023-03-05T20:44:11.571Z,48.12
2023-03-05T20:47:22.304Z,48.09
2023-03-05T20:49:48.960Z,48.25
2023-03-05T20:52:15.794Z,48.20
2023-03-05T20:54:47.638Z,48.34
2023-03-05T20:57:16.510Z,48.36
2023-03-05T20:59:45.607Z,48.30
2023-03-05T21:02:14.533Z,48.49
2023-03-05T21:04:41.202Z,48.64
2023-03-05T21:07:10.088Z,48.53
2023-03-05T21:09:36.903Z,48.64
2023-03-05T21:12:03.809Z,48.58
2023-03-05T21:14:37.654Z,48.51
2023-03-05T21:17:07.993Z,48.50
2023-03-05T21:19:34.781Z,48.59
2023-03-05T21:22:04.590Z,48.68
2023-03-05T21:24:54.522Z,48.97
2023-03-05T21:27:23.429Z,34.52
2023-03-05T21:29:50.442Z,34.60
2023-03-05T21:32:17.024Z,34.83
2023-03-05T21:34:48.910Z,33.45
2023-03-05T21:37:20.272Z,38.89
2023-03-05T21:39:46.997Z,40.57
2023-03-05T21:42:15.905Z,43.70
2023-03-05T21:44:42.526Z,38.79
2023-03-05T21:47:09.262Z,35.44
2023-03-05T21:49:40.854Z,38.57
2023-03-05T21:52:11.795Z,40.11
2023-03-05T21:54:38.879Z,42.94
2023-03-05T21:57:06.018Z,44.34
2023-03-05T21:59:35.163Z,45.29
2023-03-05T22:02:01.821Z,47.66
2023-03-05T22:04:30.650Z,48.34
2023-03-05T22:06:59.670Z,48.31
2023-03-05T22:09:28.485Z,48.50
2023-03-05T22:11:57.677Z,48.77
2023-03-05T22:14:26.767Z,48.64
2023-03-05T22:17:01.707Z,48.80
2023-03-05T22:19:29.903Z,48.98
2023-03-05T22:22:04.196Z,48.91
2023-03-05T22:24:33.189Z,49.33
2023-03-05T22:26:59.925Z,49.46
2023-03-05T22:29:27.464Z,49.66
2023-03-05T22:31:56.822Z,49.82
2023-03-05T22:34:23.428Z,49.61
2023-03-05T22:36:50.034Z,50.11
2023-03-05T22:39:16.821Z,50.22
2023-03-05T22:41:45.608Z,49.95
2023-03-05T22:44:17.432Z,50.46
2023-03-05T22:46:46.456Z,50.47
2023-03-05T22:49:13.193Z,50.50
2023-03-05T22:51:42.147Z,50.40
2023-03-05T22:54:10.900Z,50.93
2023-03-05T22:56:37.566Z,50.79
2023-03-05T22:59:04.313Z,50.84
2023-03-05T23:01:31.031Z,51.26
2023-03-05T23:04:57.344Z,50.87
2023-03-05T23:07:25.828Z,51.23
2023-03-05T23:10:23.040Z,51.33
2023-03-05T23:12:52.137Z,51.46
2023-03-05T23:15:21.570Z,51.84
2023-03-05T23:17:48.256Z,51.96
2023-03-05T23:20:16.941Z,51.82
2023-03-05T23:22:46.312Z,51.79
2023-03-05T23:25:13.736Z,52.29
2023-03-05T23:27:40.575Z,52.15
2023-03-05T23:30:26.508Z,51.63
2023-03-05T23:32:54.099Z,51.81
2023-03-05T23:35:27.745Z,51.81
2023-03-05T23:37:57.008Z,52.29
2023-03-05T23:40:27.747Z,52.05
2023-03-05T23:42:54.435Z,52.27
2023-03-05T23:45:25.747Z,52.19
2023-03-05T23:47:53.042Z,52.02
2023-03-05T23:50:31.152Z,52.51
2023-03-05T23:52:59.940Z,52.49
2023-03-05T23:55:40.358Z,52.50
2023-03-05T23:58:07.160Z,52.36
